x

Seal Rocks - Between Montague And Hinchinbrook Islands, Ak (46061) Wave Buoy

9:50pm - Fri 24th Oct 2014 All times are AKDT. -8 hours from GMT.

  • Sig Wave height 3.6ft
  • Swell Direction
  • Peak Period 8s
  • Average Period 5s
  • Wind
    11mph, 13mph gusts
  • Sea Temp 50°f
  • Air Temp 45°f
  • Sea Pressure 1009mb
  • Seal Rocks - Between Montague And Hinchinbrook Islands, Ak
  • Seal Rocks - Between Montague And Hinchinbrook Islands, Ak

More Historic Weather Station data

Upgrade to MSW Pro to gain access to the past 30 days of data for over 8000 Wavebouys and Weather Stations around the globe.

Join Pro

Comparision Forecast

View Surf forecast
   
Fri 10/24 9:50pm 3.5ft 8s 5s 11 13 mph 1009mb 50f 45f
8:50pm 3.5ft 8s 5s 11 16 mph 1008.7mb 50f 45f
7:50pm 3ft 8s 5s 11 13 mph 1008.6mb 51f 45f
6:50pm 3ft 9s 5s 9 11 mph 1008.3mb 51f 45f
5:50pm 3ft 9s 5s 11 16 mph 1008mb 51f 46f
4:50pm 2.5ft 5s 5s 16 18 mph 1007.6mb 51f 46f
3:50pm 2.5ft 9s 5s 16 18 mph 1007.4mb 51f 45f
2:50pm 2.5ft 8s 5s 16 20 mph 1007.3mb 51f 45f
1:50pm 3ft 8s 5s 18 20 mph 1007.2mb 51f 45f
12:50pm 3.5ft 8s 5s 16 18 mph 1007.1mb 51f 46f
11:50am 3ft 8s 5s 18 20 mph 1006.9mb 51f 45f
10:50am 3ft 8s 5s 11 13 mph 1006.9mb 51f 45f
9:50am 2.5ft 8s 5s 7 11 mph 1006.8mb 51f 45f
8:50am 3ft 8s 5s 16 18 mph 1006.5mb 51f 44f
7:50am 2.5ft 7s 5s 16 20 mph 1006.4mb 50f 45f
6:50am 2.5ft 7s 5s 16 18 mph 1006.4mb 50f 45f
5:50am 2.5ft 7s 5s 13 18 mph 1006.1mb 50f 45f
4:50am 2.5ft 8s 5s 13 18 mph 1006.1mb 50f 44f
3:50am 2.5ft 8s 5s 18 22 mph 1005.8mb 51f 45f
2:50am 2.5ft 8s 5s 16 20 mph 1005.5mb 51f 46f
1:50am 3ft 7s 5s 18 20 mph 1005.4mb 50f 46f
12:50am 3ft 7s 5s 16 18 mph 1005.4mb 49f 46f
Thu 10/23 11:50pm 3ft 8s 5s 13 16 mph 1005.4mb 49f 46f
10:50pm 2.5ft 8s 6s 7 9 mph 1005.5mb 50f 46f
9:50pm 3ft 7s 6s 9
mph
1005.3mb 49f 46f
8:50pm 3.5ft 8s 6s 7 11 mph 1004.9mb 49f 46f
7:50pm 3.5ft 8s 7s 9 11 mph 1004.3mb 49f 46f
6:50pm 3ft 8s 6s 9 11 mph 1003.6mb 49f 46f
5:50pm 3.5ft 8s 6s 9 11 mph 1003.2mb 49f 46f
4:50pm 3.5ft 8s 5s 13 16 mph 1002.6mb 49f 46f
3:50pm 3.5ft 9s 6s 13 16 mph 1002.3mb 49f 46f
2:50pm 3.5ft 8s 6s 13 16 mph 1002.2mb 49f 46f
1:50pm 3.5ft 9s 6s 13 16 mph 1001.9mb 49f 46f
12:50pm 4ft 8s 6s 16 18 mph 1001.4mb 50f 46f
11:50am 4.5ft 8s 6s 16 20 mph 1001.4mb 50f 46f
10:50am 4.5ft 9s 6s 18 20 mph 1001.1mb 50f 47f
9:50am 4.5ft 10s 7s 11 13 mph 1001.1mb 49f 46f
8:50am 4.5ft 9s 6s 13
mph
1000.6mb 49f 46f
7:50am 5ft 9s 6s 13 16 mph 1000.6mb 50f 46f
6:50am 5ft 10s 7s 9 11 mph 1000.2mb 50f 45f
5:50am 4.5ft 10s 7s 11 13 mph 999.7mb 50f 45f
4:50am 5ft 11s 6s 13 16 mph 999.4mb 50f 44f
3:50am 5ft 11s 6s 16 18 mph 998.8mb 51f 45f
2:50am 5ft 11s 6s 16 18 mph 998.4mb 51f 45f
1:50am 7ft 11s 7s 18 22 mph 997.9mb 51f 45f
12:50am 7ft 11s 7s 18 22 mph 997.4mb 51f 46f
Wed 10/22 11:50pm 6.5ft 10s 6s 13 18 mph 996.8mb 51f 46f
10:50pm 7ft 11s 7s 18 25 mph 996.2mb 50f 48f
9:50pm 6.5ft 11s 7s 9 11 mph 995.6mb 51f 49f
8:50pm 8ft 11s 8s 11 13 mph 994.7mb 51f 49f
7:50pm 6ft 11s 8s 11 16 mph 993.6mb 50f 49f
6:50pm 6ft 11s 8s 13 18 mph 992.8mb 50f 49f
5:50pm 7ft 10s 9s 11 13 mph 991.8mb 50f 49f
4:50pm 8ft 11s 9s 13 18 mph 991mb 51f 49f
3:50pm 7.5ft 11s 9s 13 18 mph 990.6mb 51f 48f
2:50pm 8ft 11s 9s 18 22 mph 989.6mb 51f 48f
1:50pm 7ft 11s 8s 18 22 mph 989.1mb 51f 48f
12:50pm 6.5ft 11s 8s 18 22 mph 988.6mb 51f 48f
11:50am 6ft 10s 7s 18 20 mph 988.1mb 51f 48f
10:50am 5.5ft 10s 7s 18 20 mph 987.7mb 51f 48f
9:50am 7ft 9s 7s 18 22 mph 987.2mb 51f 48f
8:50am 6ft 10s 7s 13 18 mph 987.1mb 50f 48f
7:50am 6.5ft 10s 8s 13 20 mph 986.8mb 50f 48f
6:50am 6ft 10s 8s 18 22 mph 986.2mb 50f 47f
5:50am 6.5ft 10s 8s 16 20 mph 986.1mb 50f 48f
4:50am 5ft 11s 8s 16 20 mph 985.9mb 50f 47f
3:50am 6ft 10s 8s 18 25 mph 985.3mb 50f 47f
2:50am 4.5ft 10s 6s 18 22 mph 985.2mb 50f 47f
1:50am 4ft 10s 6s 20 25 mph 985.1mb 50f 47f
12:50am 3.5ft 10s 6s 18 22 mph 985.2mb 50f 48f
Tue 10/21 11:50pm 3.5ft 10s 6s 18 20 mph 985.3mb 51f 48f
10:50pm 3ft 10s 6s 18 22 mph 985.3mb 51f 49f
9:50pm 3.5ft 9s 5s 16 20 mph 985.7mb 51f 48f
8:50pm 3.5ft 9s 5s 18 22 mph 986mb 51f 47f
7:50pm 3ft 10s 5s 20 22 mph 986.3mb 51f 47f
6:50pm 3ft 10s 5s 18 22 mph 986.6mb 51f 47f
5:50pm 3ft 10s 5s 20 22 mph 986.7mb 51f 47f
4:50pm 3.5ft 10s 5s 18 22 mph 987.1mb 50f 47f
3:50pm 4.5ft 11s 6s 20 22 mph 987.5mb 50f 47f
2:50pm 4ft 11s 6s 22 25 mph 987.9mb 50f 47f
1:50pm 3.5ft 10s 6s 13 16 mph 988.7mb 50f 47f
12:50pm 3.5ft 11s 7s 13 16 mph 989.5mb 49f 47f
11:50am 3.5ft 11s 7s 9 11 mph 990mb 49f 46f
10:50am 4ft 11s 7s 11 13 mph 990.4mb 50f 46f
9:50am 4.5ft 10s 7s 11 13 mph 990.8mb 51f 46f
8:50am 4.5ft 11s 6s 13 16 mph 991.2mb 50f 45f
7:50am 4ft 11s 6s 13 16 mph 991.5mb 50f 45f
6:50am 4ft 11s 6s 11 16 mph 992mb 51f 44f